sensor_id;sensor_type;location;lat;lon;timestamp;P1;durP1;ratioP1;P2;durP2;ratioP2
9420;SDS011;4749;51.398;5.466;2022-10-31T00:01:26;11.25;;;5.82;;
9420;SDS011;4749;51.398;5.466;2022-10-31T00:04:04;10.45;;;5.65;;
9420;SDS011;4749;51.398;5.466;2022-10-31T00:06:32;12.00;;;5.28;;
9420;SDS011;4749;51.398;5.466;2022-10-31T00:09:00;9.77;;;5.65;;
9420;SDS011;4749;51.398;5.466;2022-10-31T00:11:30;9.77;;;4.88;;
9420;SDS011;4749;51.398;5.466;2022-10-31T00:13:57;8.93;;;5.25;;
9420;SDS011;4749;51.398;5.466;2022-10-31T00:16:25;10.07;;;5.63;;
9420;SDS011;4749;51.398;5.466;2022-10-31T00:18:58;9.65;;;5.13;;
9420;SDS011;4749;51.398;5.466;2022-10-31T00:21:29;11.07;;;5.47;;
9420;SDS011;4749;51.398;5.466;2022-10-31T00:23:57;8.77;;;5.18;;
9420;SDS011;4749;51.398;5.466;2022-10-31T00:26:29;11.77;;;5.80;;
9420;SDS011;4749;51.398;5.466;2022-10-31T00:28:57;10.60;;;5.80;;
9420;SDS011;4749;51.398;5.466;2022-10-31T00:31:26;13.43;;;5.68;;
9420;SDS011;4749;51.398;5.466;2022-10-31T00:33:53;11.10;;;5.18;;
9420;SDS011;4749;51.398;5.466;2022-10-31T00:36:20;8.85;;;5.25;;
9420;SDS011;4749;51.398;5.466;2022-10-31T00:38:47;10.32;;;5.70;;
9420;SDS011;4749;51.398;5.466;2022-10-31T00:41:15;13.63;;;5.43;;
9420;SDS011;4749;51.398;5.466;2022-10-31T00:43:43;11.38;;;5.40;;
9420;SDS011;4749;51.398;5.466;2022-10-31T00:46:11;8.23;;;4.95;;
9420;SDS011;4749;51.398;5.466;2022-10-31T00:48:39;9.38;;;5.03;;
9420;SDS011;4749;51.398;5.466;2022-10-31T00:51:06;11.10;;;5.38;;
9420;SDS011;4749;51.398;5.466;2022-10-31T00:53:33;9.88;;;4.97;;
9420;SDS011;4749;51.398;5.466;2022-10-31T00:56:01;8.73;;;5.35;;
9420;SDS011;4749;51.398;5.466;2022-10-31T00:58:28;11.52;;;5.25;;
9420;SDS011;4749;51.398;5.466;2022-10-31T01:00:55;7.35;;;4.78;;
9420;SDS011;4749;51.398;5.466;2022-10-31T01:03:27;10.93;;;4.97;;
9420;SDS011;4749;51.398;5.466;2022-10-31T01:08:33;10.88;;;5.15;;
9420;SDS011;4749;51.398;5.466;2022-10-31T01:11:06;9.68;;;5.28;;
9420;SDS011;4749;51.398;5.466;2022-10-31T01:13:46;9.18;;;4.75;;
9420;SDS011;4749;51.398;5.466;2022-10-31T01:16:17;7.78;;;4.82;;
9420;SDS011;4749;51.398;5.466;2022-10-31T01:18:46;11.80;;;5.22;;
9420;SDS011;4749;51.398;5.466;2022-10-31T01:21:17;7.20;;;5.07;;
9420;SDS011;4749;51.398;5.466;2022-10-31T01:23:50;6.57;;;4.57;;
9420;SDS011;4749;51.398;5.466;2022-10-31T01:26:20;10.43;;;5.65;;
9420;SDS011;4749;51.398;5.466;2022-10-31T01:28:54;10.27;;;5.57;;
9420;SDS011;4749;51.398;5.466;2022-10-31T01:31:25;7.78;;;5.28;;
9420;SDS011;4749;51.398;5.466;2022-10-31T01:33:56;7.57;;;5.13;;
9420;SDS011;4749;51.398;5.466;2022-10-31T01:36:26;9.45;;;5.32;;
9420;SDS011;4749;51.398;5.466;2022-10-31T01:38:58;9.45;;;4.85;;
9420;SDS011;4749;51.398;5.466;2022-10-31T01:41:38;8.10;;;5.05;;
9420;SDS011;4749;51.398;5.466;2022-10-31T01:46:43;7.50;;;5.25;;
9420;SDS011;4749;51.398;5.466;2022-10-31T01:49:17;10.07;;;5.47;;
9420;SDS011;4749;51.398;5.466;2022-10-31T01:57:36;8.57;;;4.93;;
9420;SDS011;4749;51.398;5.466;2022-10-31T02:00:08;9.32;;;5.07;;
9420;SDS011;4749;51.398;5.466;2022-10-31T02:02:37;7.85;;;5.50;;
9420;SDS011;4749;51.398;5.466;2022-10-31T02:05:06;8.55;;;5.43;;
9420;SDS011;4749;51.398;5.466;2022-10-31T02:10:20;8.52;;;4.93;;
9420;SDS011;4749;51.398;5.466;2022-10-31T02:12:51;8.88;;;5.35;;
9420;SDS011;4749;51.398;5.466;2022-10-31T02:15:21;6.65;;;5.10;;
9420;SDS011;4749;51.398;5.466;2022-10-31T02:17:49;9.13;;;5.45;;
9420;SDS011;4749;51.398;5.466;2022-10-31T02:20:16;8.85;;;5.20;;
9420;SDS011;4749;51.398;5.466;2022-10-31T02:25:38;9.07;;;4.53;;
9420;SDS011;4749;51.398;5.466;2022-10-31T02:33:42;8.85;;;4.75;;
9420;SDS011;4749;51.398;5.466;2022-10-31T02:36:51;6.93;;;4.60;;
9420;SDS011;4749;51.398;5.466;2022-10-31T02:39:26;8.15;;;5.15;;
9420;SDS011;4749;51.398;5.466;2022-10-31T02:45:11;8.63;;;4.50;;
9420;SDS011;4749;51.398;5.466;2022-10-31T02:47:52;10.98;;;5.30;;
9420;SDS011;4749;51.398;5.466;2022-10-31T02:50:28;11.73;;;5.00;;
9420;SDS011;4749;51.398;5.466;2022-10-31T02:53:01;9.27;;;5.87;;
9420;SDS011;4749;51.398;5.466;2022-10-31T02:57:58;7.13;;;4.63;;
9420;SDS011;4749;51.398;5.466;2022-10-31T03:06:24;8.85;;;5.90;;
9420;SDS011;4749;51.398;5.466;2022-10-31T03:09:18;15.38;;;6.32;;
9420;SDS011;4749;51.398;5.466;2022-10-31T03:12:38;13.52;;;6.28;;
9420;SDS011;4749;51.398;5.466;2022-10-31T03:15:41;7.50;;;5.70;;
9420;SDS011;4749;51.398;5.466;2022-10-31T03:18:16;10.18;;;6.15;;
9420;SDS011;4749;51.398;5.466;2022-10-31T03:20:52;12.00;;;5.93;;
9420;SDS011;4749;51.398;5.466;2022-10-31T03:23:27;9.07;;;6.30;;
9420;SDS011;4749;51.398;5.466;2022-10-31T03:25:56;11.07;;;6.80;;
9420;SDS011;4749;51.398;5.466;2022-10-31T03:28:28;12.48;;;6.32;;
9420;SDS011;4749;51.398;5.466;2022-10-31T03:31:00;12.05;;;7.15;;
9420;SDS011;4749;51.398;5.466;2022-10-31T03:33:33;11.75;;;6.72;;
9420;SDS011;4749;51.398;5.466;2022-10-31T03:36:04;10.13;;;6.50;;
9420;SDS011;4749;51.398;5.466;2022-10-31T03:38:33;10.10;;;7.03;;
9420;SDS011;4749;51.398;5.466;2022-10-31T03:41:02;10.30;;;6.43;;
9420;SDS011;4749;51.398;5.466;2022-10-31T03:43:36;8.05;;;5.80;;
9420;SDS011;4749;51.398;5.466;2022-10-31T03:46:09;9.40;;;6.33;;
9420;SDS011;4749;51.398;5.466;2022-10-31T03:48:37;10.70;;;6.87;;
9420;SDS011;4749;51.398;5.466;2022-10-31T03:57:03;12.65;;;6.35;;
9420;SDS011;4749;51.398;5.466;2022-10-31T03:59:37;13.47;;;7.70;;
9420;SDS011;4749;51.398;5.466;2022-10-31T04:02:11;9.87;;;6.77;;
9420;SDS011;4749;51.398;5.466;2022-10-31T04:04:44;10.80;;;7.53;;
9420;SDS011;4749;51.398;5.466;2022-10-31T04:07:13;11.30;;;7.50;;
9420;SDS011;4749;51.398;5.466;2022-10-31T04:09:42;12.83;;;7.27;;
9420;SDS011;4749;51.398;5.466;2022-10-31T04:12:13;10.93;;;7.05;;
9420;SDS011;4749;51.398;5.466;2022-10-31T04:14:43;12.23;;;7.57;;
9420;SDS011;4749;51.398;5.466;2022-10-31T04:17:15;10.13;;;7.03;;
9420;SDS011;4749;51.398;5.466;2022-10-31T04:19:46;12.43;;;7.67;;
9420;SDS011;4749;51.398;5.466;2022-10-31T04:22:13;13.70;;;7.80;;
9420;SDS011;4749;51.398;5.466;2022-10-31T04:24:40;9.97;;;8.00;;
9420;SDS011;4749;51.398;5.466;2022-10-31T04:27:07;13.47;;;8.00;;
9420;SDS011;4749;51.398;5.466;2022-10-31T04:29:34;15.63;;;9.43;;
9420;SDS011;4749;51.398;5.466;2022-10-31T04:32:01;13.00;;;8.83;;
9420;SDS011;4749;51.398;5.466;2022-10-31T04:34:28;14.13;;;8.73;;
9420;SDS011;4749;51.398;5.466;2022-10-31T04:36:55;14.23;;;8.53;;
9420;SDS011;4749;51.398;5.466;2022-10-31T04:39:23;13.95;;;9.02;;
9420;SDS011;4749;51.398;5.466;2022-10-31T04:41:52;13.30;;;8.73;;
9420;SDS011;4749;51.398;5.466;2022-10-31T04:44:19;12.23;;;8.33;;
9420;SDS011;4749;51.398;5.466;2022-10-31T04:46:46;16.63;;;9.63;;
9420;SDS011;4749;51.398;5.466;2022-10-31T04:49:13;14.70;;;9.10;;
9420;SDS011;4749;51.398;5.466;2022-10-31T04:51:40;14.13;;;9.37;;
9420;SDS011;4749;51.398;5.466;2022-10-31T04:54:07;14.75;;;9.32;;
9420;SDS011;4749;51.398;5.466;2022-10-31T04:56:34;14.57;;;8.53;;
9420;SDS011;4749;51.398;5.466;2022-10-31T04:59:01;14.30;;;9.47;;
9420;SDS011;4749;51.398;5.466;2022-10-31T05:01:28;12.95;;;9.10;;
9420;SDS011;4749;51.398;5.466;2022-10-31T05:03:55;13.20;;;9.00;;
9420;SDS011;4749;51.398;5.466;2022-10-31T05:06:23;11.80;;;9.07;;
9420;SDS011;4749;51.398;5.466;2022-10-31T05:08:50;10.80;;;7.87;;
9420;SDS011;4749;51.398;5.466;2022-10-31T05:11:17;15.37;;;9.30;;
9420;SDS011;4749;51.398;5.466;2022-10-31T05:13:44;12.70;;;8.60;;
9420;SDS011;4749;51.398;5.466;2022-10-31T05:16:11;9.77;;;8.10;;
9420;SDS011;4749;51.398;5.466;2022-10-31T05:18:38;11.67;;;8.80;;
9420;SDS011;4749;51.398;5.466;2022-10-31T05:21:05;12.43;;;8.63;;
9420;SDS011;4749;51.398;5.466;2022-10-31T05:23:32;13.90;;;8.90;;
9420;SDS011;4749;51.398;5.466;2022-10-31T05:25:59;14.45;;;8.23;;
9420;SDS011;4749;51.398;5.466;2022-10-31T05:28:26;14.37;;;8.53;;
9420;SDS011;4749;51.398;5.466;2022-10-31T05:30:53;14.37;;;9.03;;
9420;SDS011;4749;51.398;5.466;2022-10-31T05:33:20;11.97;;;8.53;;
9420;SDS011;4749;51.398;5.466;2022-10-31T05:35:47;14.80;;;9.60;;
9420;SDS011;4749;51.398;5.466;2022-10-31T05:38:14;14.03;;;8.50;;
9420;SDS011;4749;51.398;5.466;2022-10-31T05:40:41;13.43;;;9.03;;
9420;SDS011;4749;51.398;5.466;2022-10-31T05:43:08;13.57;;;8.50;;
9420;SDS011;4749;51.398;5.466;2022-10-31T05:45:35;13.70;;;8.07;;
9420;SDS011;4749;51.398;5.466;2022-10-31T05:48:02;14.60;;;8.33;;
9420;SDS011;4749;51.398;5.466;2022-10-31T05:50:30;14.87;;;8.80;;
9420;SDS011;4749;51.398;5.466;2022-10-31T05:55:31;11.73;;;8.10;;
9420;SDS011;4749;51.398;5.466;2022-10-31T05:57:58;10.87;;;8.13;;
9420;SDS011;4749;51.398;5.466;2022-10-31T06:00:27;12.00;;;8.40;;
9420;SDS011;4749;51.398;5.466;2022-10-31T06:02:58;17.50;;;8.93;;
9420;SDS011;4749;51.398;5.466;2022-10-31T06:05:34;16.60;;;8.87;;
9420;SDS011;4749;51.398;5.466;2022-10-31T06:08:01;14.60;;;9.93;;
9420;SDS011;4749;51.398;5.466;2022-10-31T06:10:29;16.58;;;9.30;;
9420;SDS011;4749;51.398;5.466;2022-10-31T06:12:56;12.37;;;8.43;;
9420;SDS011;4749;51.398;5.466;2022-10-31T06:15:23;15.07;;;9.97;;
9420;SDS011;4749;51.398;5.466;2022-10-31T06:17:57;12.03;;;8.70;;
9420;SDS011;4749;51.398;5.466;2022-10-31T06:20:32;16.77;;;9.57;;
9420;SDS011;4749;51.398;5.466;2022-10-31T06:22:59;12.80;;;8.70;;
9420;SDS011;4749;51.398;5.466;2022-10-31T06:25:28;11.93;;;8.57;;
9420;SDS011;4749;51.398;5.466;2022-10-31T06:27:55;16.20;;;9.20;;
9420;SDS011;4749;51.398;5.466;2022-10-31T06:30:23;13.63;;;9.80;;
9420;SDS011;4749;51.398;5.466;2022-10-31T06:32:51;20.57;;;10.27;;
9420;SDS011;4749;51.398;5.466;2022-10-31T06:35:18;16.93;;;9.63;;
9420;SDS011;4749;51.398;5.466;2022-10-31T06:37:54;14.57;;;9.80;;
9420;SDS011;4749;51.398;5.466;2022-10-31T06:40:22;13.57;;;9.03;;
9420;SDS011;4749;51.398;5.466;2022-10-31T06:42:59;15.60;;;10.17;;
9420;SDS011;4749;51.398;5.466;2022-10-31T06:45:27;14.93;;;9.83;;
9420;SDS011;4749;51.398;5.466;2022-10-31T06:47:54;12.47;;;8.93;;
9420;SDS011;4749;51.398;5.466;2022-10-31T06:50:44;14.23;;;8.73;;
9420;SDS011;4749;51.398;5.466;2022-10-31T06:53:11;17.48;;;9.02;;
9420;SDS011;4749;51.398;5.466;2022-10-31T06:55:40;12.55;;;9.43;;
9420;SDS011;4749;51.398;5.466;2022-10-31T06:58:08;12.68;;;8.98;;
9420;SDS011;4749;51.398;5.466;2022-10-31T07:00:36;14.73;;;9.30;;
9420;SDS011;4749;51.398;5.466;2022-10-31T07:03:05;16.60;;;9.23;;
9420;SDS011;4749;51.398;5.466;2022-10-31T07:05:37;13.43;;;9.13;;
9420;SDS011;4749;51.398;5.466;2022-10-31T07:08:06;14.80;;;9.57;;
9420;SDS011;4749;51.398;5.466;2022-10-31T07:10:39;15.50;;;9.30;;
9420;SDS011;4749;51.398;5.466;2022-10-31T07:13:12;14.95;;;9.27;;
9420;SDS011;4749;51.398;5.466;2022-10-31T07:15:41;15.57;;;9.67;;
9420;SDS011;4749;51.398;5.466;2022-10-31T07:18:10;14.63;;;9.70;;
9420;SDS011;4749;51.398;5.466;2022-10-31T07:20:39;15.93;;;10.27;;
9420;SDS011;4749;51.398;5.466;2022-10-31T07:23:07;13.38;;;9.30;;
9420;SDS011;4749;51.398;5.466;2022-10-31T07:25:40;18.30;;;9.88;;
9420;SDS011;4749;51.398;5.466;2022-10-31T07:28:08;14.57;;;10.27;;
9420;SDS011;4749;51.398;5.466;2022-10-31T07:30:35;15.10;;;9.65;;
9420;SDS011;4749;51.398;5.466;2022-10-31T07:33:04;17.40;;;10.48;;
9420;SDS011;4749;51.398;5.466;2022-10-31T07:35:32;15.23;;;10.68;;
9420;SDS011;4749;51.398;5.466;2022-10-31T07:38:10;16.55;;;10.48;;
9420;SDS011;4749;51.398;5.466;2022-10-31T07:40:39;18.97;;;10.30;;
9420;SDS011;4749;51.398;5.466;2022-10-31T07:43:08;17.58;;;10.98;;
9420;SDS011;4749;51.398;5.466;2022-10-31T07:45:40;14.52;;;10.35;;
9420;SDS011;4749;51.398;5.466;2022-10-31T07:48:07;15.30;;;10.93;;
9420;SDS011;4749;51.398;5.466;2022-10-31T07:50:34;19.92;;;12.40;;
9420;SDS011;4749;51.398;5.466;2022-10-31T07:53:02;16.52;;;11.88;;
9420;SDS011;4749;51.398;5.466;2022-10-31T07:55:32;18.58;;;11.18;;
9420;SDS011;4749;51.398;5.466;2022-10-31T07:58:00;18.50;;;11.95;;
9420;SDS011;4749;51.398;5.466;2022-10-31T08:00:29;17.65;;;12.05;;
9420;SDS011;4749;51.398;5.466;2022-10-31T08:05:31;19.17;;;12.00;;
9420;SDS011;4749;51.398;5.466;2022-10-31T08:07:59;16.52;;;12.23;;
9420;SDS011;4749;51.398;5.466;2022-10-31T08:10:27;17.02;;;13.32;;
9420;SDS011;4749;51.398;5.466;2022-10-31T08:12:58;19.20;;;12.98;;
9420;SDS011;4749;51.398;5.466;2022-10-31T08:15:28;17.85;;;13.05;;
9420;SDS011;4749;51.398;5.466;2022-10-31T08:17:56;17.85;;;12.90;;
9420;SDS011;4749;51.398;5.466;2022-10-31T08:20:23;21.48;;;14.52;;
9420;SDS011;4749;51.398;5.466;2022-10-31T08:22:58;22.08;;;13.77;;
9420;SDS011;4749;51.398;5.466;2022-10-31T08:25:31;20.35;;;14.35;;
9420;SDS011;4749;51.398;5.466;2022-10-31T08:28:04;19.65;;;13.75;;
9420;SDS011;4749;51.398;5.466;2022-10-31T08:30:34;24.42;;;15.30;;
9420;SDS011;4749;51.398;5.466;2022-10-31T08:33:08;19.33;;;13.70;;
9420;SDS011;4749;51.398;5.466;2022-10-31T08:35:38;19.38;;;14.20;;
9420;SDS011;4749;51.398;5.466;2022-10-31T08:38:07;22.20;;;13.50;;
9420;SDS011;4749;51.398;5.466;2022-10-31T08:40:39;24.55;;;14.35;;
9420;SDS011;4749;51.398;5.466;2022-10-31T08:43:07;26.60;;;14.60;;
9420;SDS011;4749;51.398;5.466;2022-10-31T08:45:40;23.42;;;14.35;;
9420;SDS011;4749;51.398;5.466;2022-10-31T08:48:09;26.60;;;14.45;;
9420;SDS011;4749;51.398;5.466;2022-10-31T08:50:39;20.65;;;14.82;;
9420;SDS011;4749;51.398;5.466;2022-10-31T08:55:45;23.17;;;15.63;;
9420;SDS011;4749;51.398;5.466;2022-10-31T08:58:14;30.67;;;18.52;;
9420;SDS011;4749;51.398;5.466;2022-10-31T09:00:46;25.77;;;16.73;;
9420;SDS011;4749;51.398;5.466;2022-10-31T09:03:23;29.65;;;18.20;;
9420;SDS011;4749;51.398;5.466;2022-10-31T09:05:58;30.98;;;18.92;;
9420;SDS011;4749;51.398;5.466;2022-10-31T09:08:29;29.77;;;19.08;;
9420;SDS011;4749;51.398;5.466;2022-10-31T09:10:57;30.02;;;18.80;;
9420;SDS011;4749;51.398;5.466;2022-10-31T09:13:25;29.20;;;18.73;;
9420;SDS011;4749;51.398;5.466;2022-10-31T09:15:53;29.70;;;18.88;;
9420;SDS011;4749;51.398;5.466;2022-10-31T09:18:23;28.27;;;17.75;;
9420;SDS011;4749;51.398;5.466;2022-10-31T09:20:50;31.67;;;16.98;;
9420;SDS011;4749;51.398;5.466;2022-10-31T09:23:21;35.80;;;19.42;;
9420;SDS011;4749;51.398;5.466;2022-10-31T09:25:49;31.95;;;18.35;;
9420;SDS011;4749;51.398;5.466;2022-10-31T09:28:20;30.58;;;17.98;;
9420;SDS011;4749;51.398;5.466;2022-10-31T09:30:50;33.58;;;17.92;;
9420;SDS011;4749;51.398;5.466;2022-10-31T09:33:19;28.20;;;17.73;;
9420;SDS011;4749;51.398;5.466;2022-10-31T09:35:47;24.95;;;17.05;;
9420;SDS011;4749;51.398;5.466;2022-10-31T09:38:15;25.27;;;16.80;;
9420;SDS011;4749;51.398;5.466;2022-10-31T09:43:57;28.30;;;17.10;;
9420;SDS011;4749;51.398;5.466;2022-10-31T09:47:09;28.63;;;17.38;;
9420;SDS011;4749;51.398;5.466;2022-10-31T09:52:57;28.58;;;18.67;;
9420;SDS011;4749;51.398;5.466;2022-10-31T09:55:40;26.13;;;18.45;;
9420;SDS011;4749;51.398;5.466;2022-10-31T09:58:17;32.97;;;18.75;;
9420;SDS011;4749;51.398;5.466;2022-10-31T10:00:49;30.65;;;19.58;;
9420;SDS011;4749;51.398;5.466;2022-10-31T10:06:13;36.03;;;20.00;;
9420;SDS011;4749;51.398;5.466;2022-10-31T10:08:54;36.05;;;20.52;;
9420;SDS011;4749;51.398;5.466;2022-10-31T10:11:26;39.55;;;21.33;;
9420;SDS011;4749;51.398;5.466;2022-10-31T10:22:36;40.38;;;22.00;;
9420;SDS011;4749;51.398;5.466;2022-10-31T10:31:03;38.20;;;22.20;;
9420;SDS011;4749;51.398;5.466;2022-10-31T10:36:53;39.28;;;21.80;;
9420;SDS011;4749;51.398;5.466;2022-10-31T10:39:25;37.03;;;21.95;;
9420;SDS011;4749;51.398;5.466;2022-10-31T10:42:01;32.40;;;18.88;;
9420;SDS011;4749;51.398;5.466;2022-10-31T10:44:57;40.53;;;21.48;;
9420;SDS011;4749;51.398;5.466;2022-10-31T10:47:47;34.00;;;20.67;;
9420;SDS011;4749;51.398;5.466;2022-10-31T10:50:34;34.00;;;20.10;;
9420;SDS011;4749;51.398;5.466;2022-10-31T10:56:37;36.13;;;19.83;;
9420;SDS011;4749;51.398;5.466;2022-10-31T10:59:26;35.10;;;20.17;;
9420;SDS011;4749;51.398;5.466;2022-10-31T11:01:53;34.97;;;20.45;;
9420;SDS011;4749;51.398;5.466;2022-10-31T11:07:15;27.63;;;17.92;;
9420;SDS011;4749;51.398;5.466;2022-10-31T11:09:42;29.90;;;19.33;;
9420;SDS011;4749;51.398;5.466;2022-10-31T11:12:10;29.10;;;18.38;;
9420;SDS011;4749;51.398;5.466;2022-10-31T11:14:55;28.73;;;17.15;;
9420;SDS011;4749;51.398;5.466;2022-10-31T11:17:33;32.67;;;17.83;;
9420;SDS011;4749;51.398;5.466;2022-10-31T11:22:45;26.30;;;17.00;;
9420;SDS011;4749;51.398;5.466;2022-10-31T11:25:22;29.67;;;17.67;;
9420;SDS011;4749;51.398;5.466;2022-10-31T11:28:00;26.85;;;17.80;;
9420;SDS011;4749;51.398;5.466;2022-10-31T11:35:49;31.65;;;18.38;;
9420;SDS011;4749;51.398;5.466;2022-10-31T11:38:24;29.38;;;16.95;;
9420;SDS011;4749;51.398;5.466;2022-10-31T11:41:11;28.95;;;16.92;;
9420;SDS011;4749;51.398;5.466;2022-10-31T11:43:48;26.85;;;15.55;;
9420;SDS011;4749;51.398;5.466;2022-10-31T11:46:37;25.90;;;15.80;;
9420;SDS011;4749;51.398;5.466;2022-10-31T11:49:19;28.65;;;16.30;;
9420;SDS011;4749;51.398;5.466;2022-10-31T11:51:54;31.73;;;16.23;;
9420;SDS011;4749;51.398;5.466;2022-10-31T11:54:26;24.73;;;16.70;;
9420;SDS011;4749;51.398;5.466;2022-10-31T11:57:01;27.50;;;15.65;;
9420;SDS011;4749;51.398;5.466;2022-10-31T11:59:30;29.17;;;16.80;;
9420;SDS011;4749;51.398;5.466;2022-10-31T12:01:59;28.20;;;16.83;;
9420;SDS011;4749;51.398;5.466;2022-10-31T12:04:36;30.08;;;16.08;;
9420;SDS011;4749;51.398;5.466;2022-10-31T12:07:12;32.72;;;16.58;;
9420;SDS011;4749;51.398;5.466;2022-10-31T12:09:39;25.98;;;17.65;;
9420;SDS011;4749;51.398;5.466;2022-10-31T12:20:20;28.25;;;14.68;;
9420;SDS011;4749;51.398;5.466;2022-10-31T12:23:19;25.70;;;14.77;;
9420;SDS011;4749;51.398;5.466;2022-10-31T12:38:42;22.25;;;13.98;;
9420;SDS011;4749;51.398;5.466;2022-10-31T12:41:58;21.70;;;12.23;;
9420;SDS011;4749;51.398;5.466;2022-10-31T12:54:12;24.75;;;12.13;;
9420;SDS011;4749;51.398;5.466;2022-10-31T12:59:48;19.35;;;12.23;;
9420;SDS011;4749;51.398;5.466;2022-10-31T13:02:33;21.48;;;11.95;;
9420;SDS011;4749;51.398;5.466;2022-10-31T13:08:20;18.08;;;11.23;;
9420;SDS011;4749;51.398;5.466;2022-10-31T13:11:06;19.30;;;10.25;;
9420;SDS011;4749;51.398;5.466;2022-10-31T13:16:40;19.00;;;10.77;;
9420;SDS011;4749;51.398;5.466;2022-10-31T13:22:22;19.27;;;11.05;;
9420;SDS011;4749;51.398;5.466;2022-10-31T13:27:58;22.17;;;10.95;;
9420;SDS011;4749;51.398;5.466;2022-10-31T13:30:31;19.35;;;10.43;;
9420;SDS011;4749;51.398;5.466;2022-10-31T13:39:15;19.00;;;9.60;;
9420;SDS011;4749;51.398;5.466;2022-10-31T13:45:27;21.58;;;9.60;;
9420;SDS011;4749;51.398;5.466;2022-10-31T13:50:58;15.45;;;9.48;;
9420;SDS011;4749;51.398;5.466;2022-10-31T13:53:38;15.20;;;9.82;;
9420;SDS011;4749;51.398;5.466;2022-10-31T13:56:14;19.55;;;10.13;;
9420;SDS011;4749;51.398;5.466;2022-10-31T13:59:29;19.77;;;10.35;;
9420;SDS011;4749;51.398;5.466;2022-10-31T14:01:36;18.80;;;10.90;;
9420;SDS011;4749;51.398;5.466;2022-10-31T14:04:14;18.88;;;9.55;;
9420;SDS011;4749;51.398;5.466;2022-10-31T14:09:48;19.05;;;8.90;;
9420;SDS011;4749;51.398;5.466;2022-10-31T14:12:47;17.75;;;9.48;;
9420;SDS011;4749;51.398;5.466;2022-10-31T14:15:19;17.63;;;9.65;;
9420;SDS011;4749;51.398;5.466;2022-10-31T14:17:57;13.55;;;7.95;;
9420;SDS011;4749;51.398;5.466;2022-10-31T14:23:28;15.80;;;8.98;;
9420;SDS011;4749;51.398;5.466;2022-10-31T14:26:58;16.45;;;9.43;;
9420;SDS011;4749;51.398;5.466;2022-10-31T14:31:43;18.60;;;9.73;;
9420;SDS011;4749;51.398;5.466;2022-10-31T14:34:19;14.75;;;8.52;;
9420;SDS011;4749;51.398;5.466;2022-10-31T14:39:36;14.82;;;9.07;;
9420;SDS011;4749;51.398;5.466;2022-10-31T14:50:58;18.08;;;7.80;;
9420;SDS011;4749;51.398;5.466;2022-10-31T14:53:30;16.33;;;7.50;;
9420;SDS011;4749;51.398;5.466;2022-10-31T14:56:00;16.38;;;8.80;;
9420;SDS011;4749;51.398;5.466;2022-10-31T14:58:39;14.98;;;8.95;;
9420;SDS011;4749;51.398;5.466;2022-10-31T15:01:23;14.75;;;7.22;;
9420;SDS011;4749;51.398;5.466;2022-10-31T15:06:52;13.40;;;6.93;;
9420;SDS011;4749;51.398;5.466;2022-10-31T15:10:06;17.77;;;9.20;;
9420;SDS011;4749;51.398;5.466;2022-10-31T15:15:48;12.63;;;7.78;;
9420;SDS011;4749;51.398;5.466;2022-10-31T15:18:21;15.60;;;8.43;;
9420;SDS011;4749;51.398;5.466;2022-10-31T15:20:52;14.25;;;8.80;;
9420;SDS011;4749;51.398;5.466;2022-10-31T15:23:25;11.27;;;7.47;;
9420;SDS011;4749;51.398;5.466;2022-10-31T15:26:03;14.95;;;7.82;;
9420;SDS011;4749;51.398;5.466;2022-10-31T15:28:31;14.80;;;7.93;;
9420;SDS011;4749;51.398;5.466;2022-10-31T15:30:59;15.82;;;7.88;;
9420;SDS011;4749;51.398;5.466;2022-10-31T15:33:29;17.45;;;8.30;;
9420;SDS011;4749;51.398;5.466;2022-10-31T15:36:05;13.07;;;6.97;;
9420;SDS011;4749;51.398;5.466;2022-10-31T15:38:38;13.85;;;7.05;;
9420;SDS011;4749;51.398;5.466;2022-10-31T15:41:18;13.48;;;7.55;;
9420;SDS011;4749;51.398;5.466;2022-10-31T15:44:13;14.65;;;7.30;;
9420;SDS011;4749;51.398;5.466;2022-10-31T15:46:59;14.77;;;7.28;;
9420;SDS011;4749;51.398;5.466;2022-10-31T15:52:12;14.23;;;7.82;;
9420;SDS011;4749;51.398;5.466;2022-10-31T15:54:45;12.82;;;7.50;;
9420;SDS011;4749;51.398;5.466;2022-10-31T15:57:25;15.02;;;6.90;;
9420;SDS011;4749;51.398;5.466;2022-10-31T15:59:55;12.18;;;6.70;;
9420;SDS011;4749;51.398;5.466;2022-10-31T16:02:23;15.02;;;7.93;;
9420;SDS011;4749;51.398;5.466;2022-10-31T16:04:53;14.82;;;7.30;;
9420;SDS011;4749;51.398;5.466;2022-10-31T16:07:26;11.73;;;6.85;;
9420;SDS011;4749;51.398;5.466;2022-10-31T16:09:56;18.73;;;6.93;;
9420;SDS011;4749;51.398;5.466;2022-10-31T16:12:34;11.80;;;7.15;;
9420;SDS011;4749;51.398;5.466;2022-10-31T16:15:03;14.98;;;6.53;;
9420;SDS011;4749;51.398;5.466;2022-10-31T16:17:40;12.27;;;7.45;;
9420;SDS011;4749;51.398;5.466;2022-10-31T16:20:22;14.07;;;6.80;;
9420;SDS011;4749;51.398;5.466;2022-10-31T16:22:53;19.08;;;6.85;;
9420;SDS011;4749;51.398;5.466;2022-10-31T16:25:34;15.25;;;7.88;;
9420;SDS011;4749;51.398;5.466;2022-10-31T16:28:05;12.13;;;6.40;;
9420;SDS011;4749;51.398;5.466;2022-10-31T16:31:14;15.75;;;7.10;;
9420;SDS011;4749;51.398;5.466;2022-10-31T16:33:41;15.02;;;6.65;;
9420;SDS011;4749;51.398;5.466;2022-10-31T16:39:01;18.35;;;7.15;;
9420;SDS011;4749;51.398;5.466;2022-10-31T16:41:29;11.93;;;6.38;;
9420;SDS011;4749;51.398;5.466;2022-10-31T16:43:56;13.23;;;7.03;;
9420;SDS011;4749;51.398;5.466;2022-10-31T16:46:24;12.77;;;6.70;;
9420;SDS011;4749;51.398;5.466;2022-10-31T16:48:53;13.00;;;7.28;;
9420;SDS011;4749;51.398;5.466;2022-10-31T16:51:21;19.92;;;7.60;;
9420;SDS011;4749;51.398;5.466;2022-10-31T16:53:50;15.30;;;7.45;;
9420;SDS011;4749;51.398;5.466;2022-10-31T16:56:22;13.70;;;6.93;;
9420;SDS011;4749;51.398;5.466;2022-10-31T16:58:55;16.25;;;7.40;;
9420;SDS011;4749;51.398;5.466;2022-10-31T17:01:22;14.52;;;6.40;;
9420;SDS011;4749;51.398;5.466;2022-10-31T17:03:50;13.40;;;6.60;;
9420;SDS011;4749;51.398;5.466;2022-10-31T17:06:17;13.50;;;6.35;;
9420;SDS011;4749;51.398;5.466;2022-10-31T17:08:46;12.63;;;6.68;;
9420;SDS011;4749;51.398;5.466;2022-10-31T17:11:15;10.68;;;6.22;;
9420;SDS011;4749;51.398;5.466;2022-10-31T17:13:47;14.20;;;5.68;;
9420;SDS011;4749;51.398;5.466;2022-10-31T17:16:14;11.00;;;5.85;;
9420;SDS011;4749;51.398;5.466;2022-10-31T17:18:41;15.48;;;6.20;;
9420;SDS011;4749;51.398;5.466;2022-10-31T17:21:15;15.20;;;6.50;;
9420;SDS011;4749;51.398;5.466;2022-10-31T17:23:49;10.02;;;6.65;;
9420;SDS011;4749;51.398;5.466;2022-10-31T17:26:17;13.40;;;6.15;;
9420;SDS011;4749;51.398;5.466;2022-10-31T17:28:45;13.52;;;6.00;;
9420;SDS011;4749;51.398;5.466;2022-10-31T17:31:17;10.60;;;6.07;;
9420;SDS011;4749;51.398;5.466;2022-10-31T17:33:54;9.85;;;5.45;;
9420;SDS011;4749;51.398;5.466;2022-10-31T17:36:29;16.52;;;6.15;;
9420;SDS011;4749;51.398;5.466;2022-10-31T17:38:57;15.32;;;5.95;;
9420;SDS011;4749;51.398;5.466;2022-10-31T17:41:25;14.45;;;6.57;;
9420;SDS011;4749;51.398;5.466;2022-10-31T17:43:54;15.35;;;7.00;;
9420;SDS011;4749;51.398;5.466;2022-10-31T17:46:22;15.50;;;7.00;;
9420;SDS011;4749;51.398;5.466;2022-10-31T17:48:49;11.77;;;6.07;;
9420;SDS011;4749;51.398;5.466;2022-10-31T17:51:17;10.05;;;6.03;;
9420;SDS011;4749;51.398;5.466;2022-10-31T17:53:44;15.48;;;6.10;;
9420;SDS011;4749;51.398;5.466;2022-10-31T17:56:11;11.00;;;6.13;;
9420;SDS011;4749;51.398;5.466;2022-10-31T17:58:38;12.75;;;6.50;;
9420;SDS011;4749;51.398;5.466;2022-10-31T18:01:09;13.52;;;7.28;;
9420;SDS011;4749;51.398;5.466;2022-10-31T18:03:40;10.73;;;7.70;;
9420;SDS011;4749;51.398;5.466;2022-10-31T18:06:07;13.98;;;7.10;;
9420;SDS011;4749;51.398;5.466;2022-10-31T18:08:38;12.13;;;7.57;;
9420;SDS011;4749;51.398;5.466;2022-10-31T18:11:11;12.20;;;6.97;;
9420;SDS011;4749;51.398;5.466;2022-10-31T18:13:44;14.77;;;6.65;;
9420;SDS011;4749;51.398;5.466;2022-10-31T18:16:13;14.35;;;6.97;;
9420;SDS011;4749;51.398;5.466;2022-10-31T18:18:48;15.82;;;7.57;;
9420;SDS011;4749;51.398;5.466;2022-10-31T18:21:24;16.77;;;7.28;;
9420;SDS011;4749;51.398;5.466;2022-10-31T18:23:55;12.45;;;6.57;;
9420;SDS011;4749;51.398;5.466;2022-10-31T18:26:24;15.38;;;6.18;;
9420;SDS011;4749;51.398;5.466;2022-10-31T18:28:53;16.58;;;6.90;;